Time;durP1;ratioP1;P1;durP2;ratioP2;P2;SDS_P1;SDS_P2;PMS_P1;PMS_P2;Temp;Humidity;BMP_temperature;BMP_pressure;BME280_temperature;BME280_humidity;BME280_pressure;Samples;Min_cycle;Max_cycle;Signal;HPM_P1;HPM_P2
2022/10/07 00:00:50;;;;;;;;;;;9.70;99.90;;;;;;5065035;28;20045;-73
2022/10/07 00:03:17;;;;;;;0.90;0.50;;;9.80;99.90;;;;;;5063163;28;19925;-73
2022/10/07 00:05:43;;;;;;;;;;;9.80;99.90;;;;;;5054152;28;20049;-73
2022/10/07 00:08:08;;;;;;;1.80;0.40;;;9.80;99.90;;;;;;5089623;28;19916;-73
2022/10/07 00:10:42;;;;;;;1.52;0.50;;;9.70;99.90;;;;;;5092139;28;20032;-72
2022/10/07 00:13:10;;;;;;;1.67;0.45;;;9.80;99.90;;;;;;5091973;28;20486;-73
2022/10/07 00:15:36;;;;;;;1.77;0.40;;;9.80;99.90;;;;;;5068279;28;20538;-73
2022/10/07 00:18:02;;;;;;;2.88;0.60;;;9.80;99.90;;;;;;5023041;28;20080;-73
2022/10/07 00:20:28;;;;;;;0.93;0.50;;;9.80;99.90;;;;;;5029182;28;20087;-73
2022/10/07 00:22:54;;;;;;;2.17;0.43;;;9.70;99.90;;;;;;5071442;28;20128;-74
2022/10/07 00:25:20;;;;;;;1.73;0.80;;;9.80;99.90;;;;;;5071633;28;20044;-73
2022/10/07 00:27:46;;;;;;;1.27;0.52;;;9.80;99.90;;;;;;5055002;28;20041;-73
2022/10/07 00:30:12;;;;;;;2.33;0.43;;;9.80;99.90;;;;;;5054579;28;20040;-73
2022/10/07 00:32:37;;;;;;;0.88;0.38;;;9.60;99.90;;;;;;5042798;28;20068;-73
2022/10/07 00:35:03;;;;;;;1.48;0.50;;;9.70;99.90;;;;;;5081536;28;20068;-73
2022/10/07 00:37:29;;;;;;;2.92;0.88;;;9.70;99.90;;;;;;5048535;28;20041;-73
2022/10/07 00:39:55;;;;;;;2.97;0.70;;;9.70;99.90;;;;;;5071387;28;20389;-73
2022/10/07 00:42:21;;;;;;;2.95;0.80;;;9.70;99.90;;;;;;5073187;28;20062;-73
2022/10/07 00:44:47;;;;;;;1.58;0.60;;;9.50;99.90;;;;;;5054977;28;20052;-73
2022/10/07 00:47:13;;;;;;;;;;;9.60;99.90;;;;;;5071720;28;20052;-73
2022/10/07 00:49:47;;;;;;;1.58;0.80;;;9.50;99.90;;;;;;5046930;28;19920;-74
2022/10/07 00:52:15;;;;;;;1.23;0.50;;;9.50;99.90;;;;;;5045283;28;20045;-73
2022/10/07 00:54:42;;;;;;;1.58;0.70;;;9.50;99.90;;;;;;5026080;28;20048;-72
2022/10/07 00:57:08;;;;;;;2.38;0.95;;;9.30;99.90;;;;;;5051021;28;20048;-73
2022/10/07 00:59:38;;;;;;;1.25;0.68;;;9.50;99.90;;;;;;5051128;28;20148;-73
2022/10/07 01:02:06;;;;;;;1.63;0.60;;;9.30;99.90;;;;;;5050874;28;20111;-73
2022/10/07 01:04:32;;;;;;;1.83;0.63;;;9.40;99.90;;;;;;5051037;28;20110;-73
2022/10/07 01:06:58;;;;;;;2.53;0.93;;;9.20;99.90;;;;;;5025633;28;20041;-73
2022/10/07 01:09:23;;;;;;;1.42;0.60;;;9.30;99.90;;;;;;5028097;28;20041;-73
2022/10/07 01:11:55;;;;;;;0.80;0.57;;;9.40;99.90;;;;;;5024390;28;20052;-73
2022/10/07 01:14:42;;;;;;;0.88;0.45;;;9.40;99.90;;;;;;5033918;28;20049;-73
2022/10/07 01:17:34;;;;;;;1.17;0.50;;;9.30;99.90;;;;;;5028329;28;20037;-73
2022/10/07 01:20:19;;;;;;;1.25;0.90;;;9.30;99.90;;;;;;5029365;28;20041;-73
2022/10/07 01:22:50;;;;;;;1.55;0.50;;;9.30;99.90;;;;;;5016588;28;20040;-73
2022/10/07 01:25:41;;;;;;;1.77;0.63;;;9.30;99.90;;;;;;5030748;28;20402;-73
2022/10/07 01:28:13;;;;;;;1.85;0.52;;;9.20;99.90;;;;;;5026721;28;20124;-73
2022/10/07 01:30:43;;;;;;;0.77;0.40;;;9.20;99.90;;;;;;5022734;28;20094;-73
2022/10/07 01:33:26;;;;;;;1.20;0.60;;;9.20;99.90;;;;;;5048437;28;20041;-73
2022/10/07 01:35:54;;;;;;;1.13;0.50;;;9.10;99.90;;;;;;5037143;28;20045;-73
2022/10/07 01:38:25;;;;;;;1.00;0.50;;;9.00;99.90;;;;;;5023006;28;20099;-73
2022/10/07 01:41:09;;;;;;;1.77;0.60;;;9.20;99.90;;;;;;5031689;28;20079;-73
2022/10/07 01:43:37;;;;;;;1.77;0.77;;;9.00;99.90;;;;;;5055370;28;20060;-73
2022/10/07 01:46:06;;;;;;;2.22;0.70;;;9.10;99.90;;;;;;5060804;28;20127;-73
2022/10/07 01:48:32;;;;;;;1.50;0.60;;;9.10;99.90;;;;;;5066027;28;20032;-73
2022/10/07 01:51:00;;;;;;;1.02;0.70;;;9.10;99.90;;;;;;5053370;28;20039;-73
2022/10/07 01:53:36;;;;;;;0.85;0.63;;;9.00;99.90;;;;;;5070226;28;20114;-73
2022/10/07 01:56:28;;;;;;;1.88;0.75;;;9.10;99.90;;;;;;5034640;28;20452;-73
2022/10/07 01:59:51;;;;;;;2.72;0.70;;;9.00;99.90;;;;;;5038588;28;20045;-73
2022/10/07 02:02:38;;;;;;;1.38;0.63;;;8.90;99.90;;;;;;5023613;28;20089;-73
2022/10/07 02:05:22;;;;;;;0.80;0.40;;;8.90;99.90;;;;;;5019733;28;20041;-73
2022/10/07 02:08:06;;;;;;;1.33;0.60;;;9.00;99.90;;;;;;5041264;28;20060;-73
2022/10/07 02:10:32;;;;;;;0.90;0.52;;;9.00;99.90;;;;;;5057224;28;20072;-73
2022/10/07 02:13:23;;;;;;;1.25;0.52;;;8.90;99.90;;;;;;5065876;28;20076;-73
2022/10/07 02:16:04;;;;;;;1.70;0.70;;;8.80;99.90;;;;;;5056303;28;20139;-73
2022/10/07 02:18:31;;;;;;;2.13;0.52;;;8.90;99.90;;;;;;5058158;28;20049;-73
2022/10/07 02:21:02;;;;;;;0.73;0.50;;;8.90;99.90;;;;;;5056719;28;20120;-73
2022/10/07 02:23:33;;;;;;;1.10;0.50;;;8.70;99.90;;;;;;5089679;28;20376;-74
2022/10/07 02:26:00;;;;;;;1.30;0.52;;;8.70;99.90;;;;;;5076268;28;20083;-73
2022/10/07 02:28:27;;;;;;;2.05;0.77;;;8.80;99.90;;;;;;5068420;28;20123;-72
2022/10/07 02:30:59;;;;;;;2.97;0.80;;;8.80;99.90;;;;;;5066307;28;20048;-72
2022/10/07 02:33:28;;;;;;;1.75;0.70;;;8.80;99.90;;;;;;5054295;28;20443;-72
2022/10/07 02:35:57;;;;;;;1.20;0.63;;;8.60;99.90;;;;;;5050026;28;20079;-72
2022/10/07 02:38:24;;;;;;;1.88;0.60;;;8.80;99.90;;;;;;5055149;28;20033;-73
2022/10/07 02:41:13;;;;;;;2.53;0.98;;;8.70;99.90;;;;;;5058057;28;20587;-73
2022/10/07 02:43:55;;;;;;;1.95;0.85;;;8.80;99.90;;;;;;5048676;28;20057;-73
2022/10/07 02:46:28;;;;;;;1.95;0.85;;;8.60;99.90;;;;;;5052501;28;20483;-73
2022/10/07 02:49:02;;;;;;;1.95;0.80;;;8.60;99.90;;;;;;5033218;28;20505;-73
2022/10/07 02:51:35;;;;;;;1.65;0.80;;;8.80;99.90;;;;;;5050891;28;20150;-72
2022/10/07 02:54:03;;;;;;;1.65;0.80;;;8.70;99.90;;;;;;5064488;28;20190;-73
2022/10/07 02:56:31;;;;;;;1.23;0.60;;;8.50;99.90;;;;;;5068967;28;20045;-73
2022/10/07 02:58:59;;;;;;;1.95;0.80;;;8.70;99.90;;;;;;5068811;28;20138;-73
2022/10/07 03:01:30;;;;;;;1.45;0.80;;;8.70;99.90;;;;;;5069043;28;20047;-73
2022/10/07 03:03:57;;;;;;;1.02;0.60;;;8.60;99.90;;;;;;5058603;28;20055;-73
2022/10/07 03:06:24;;;;;;;1.58;0.75;;;8.60;99.90;;;;;;5050131;28;20040;-73
2022/10/07 03:08:51;;;;;;;1.33;0.70;;;8.50;99.90;;;;;;5050622;28;20358;-72
2022/10/07 03:11:17;;;;;;;2.55;0.98;;;8.50;99.90;;;;;;5049969;28;20094;-73
2022/10/07 03:13:44;;;;;;;1.67;0.80;;;8.60;99.90;;;;;;5052074;28;20040;-73
2022/10/07 03:16:10;;;;;;;2.83;0.70;;;8.70;99.90;;;;;;5068031;28;20075;-73
2022/10/07 03:18:35;;;;;;;1.52;0.90;;;8.50;99.90;;;;;;5068864;28;20441;-73
2022/10/07 03:21:01;;;;;;;2.33;0.60;;;8.60;99.90;;;;;;5069151;28;20075;-73
2022/10/07 03:23:28;;;;;;;1.63;0.65;;;8.60;99.90;;;;;;5068635;28;20049;-73
2022/10/07 03:25:55;;;;;;;1.75;0.85;;;8.50;99.90;;;;;;5056168;28;20044;-73
2022/10/07 03:28:23;;;;;;;1.38;0.73;;;8.60;99.90;;;;;;5032773;28;20087;-73
2022/10/07 03:30:50;;;;;;;1.50;0.70;;;8.70;99.90;;;;;;5015861;28;20033;-72
2022/10/07 03:33:17;;;;;;;3.08;0.70;;;8.50;99.90;;;;;;5052388;28;20064;-72
2022/10/07 03:35:44;;;;;;;2.65;0.90;;;8.60;99.90;;;;;;5051869;28;20404;-73
2022/10/07 03:38:10;;;;;;;;;;;8.50;99.90;;;;;;5051472;28;20071;-73
2022/10/07 03:40:39;;;;;;;2.88;0.93;;;8.50;99.90;;;;;;5055975;28;20375;-72
2022/10/07 03:43:06;;;;;;;2.08;0.88;;;8.50;99.90;;;;;;5057358;28;20059;-72
2022/10/07 03:45:34;;;;;;;2.60;0.88;;;8.70;99.90;;;;;;5052925;28;20805;-73
2022/10/07 03:47:59;;;;;;;1.58;0.73;;;8.50;99.90;;;;;;5052342;28;20036;-72
2022/10/07 03:50:26;;;;;;;2.15;0.80;;;8.60;99.90;;;;;;5052569;28;20535;-72
2022/10/07 03:52:51;;;;;;;2.33;0.70;;;8.60;99.90;;;;;;5071205;28;20628;-72
2022/10/07 03:55:18;;;;;;;2.50;0.80;;;8.50;99.90;;;;;;5064163;28;20158;-72
2022/10/07 03:57:49;;;;;;;;;;;8.60;99.90;;;;;;5065771;28;20048;-72
2022/10/07 04:00:19;;;;;;;2.47;0.90;;;8.40;99.90;;;;;;5051248;28;19935;-72
2022/10/07 04:02:46;;;;;;;2.65;1.00;;;8.60;99.90;;;;;;5066425;28;20067;-72
2022/10/07 04:05:14;;;;;;;1.38;0.70;;;8.40;99.90;;;;;;5062426;28;20120;-72
2022/10/07 04:07:42;;;;;;;1.95;0.80;;;8.70;99.90;;;;;;5036937;28;20041;-73
2022/10/07 04:10:09;;;;;;;2.13;0.85;;;8.60;99.90;;;;;;5068674;28;20658;-72
2022/10/07 04:12:35;;;;;;;3.75;1.00;;;8.40;99.90;;;;;;5051965;28;20037;-73
2022/10/07 04:15:01;;;;;;;1.98;1.00;;;8.60;99.90;;;;;;5061920;28;20052;-71
2022/10/07 04:17:28;;;;;;;3.50;0.90;;;8.60;99.90;;;;;;5066610;28;20044;-71
2022/10/07 04:19:53;;;;;;;2.83;1.02;;;8.40;99.90;;;;;;5068618;28;20127;-71
2022/10/07 04:22:19;;;;;;;2.50;1.00;;;8.40;99.90;;;;;;5039469;28;20171;-71
2022/10/07 04:25:32;;;;;;;2.03;0.73;;;8.40;99.90;;;;;;5027080;28;20041;-71
2022/10/07 04:27:33;;;;;;;3.50;0.73;;;8.60;99.90;;;;;;5050761;28;20129;-71
2022/10/07 04:29:59;;;;;;;2.00;0.88;;;8.60;99.90;;;;;;5057344;28;20135;-71
2022/10/07 04:32:25;;;;;;;2.83;0.93;;;8.60;99.90;;;;;;5035480;28;20094;-71
2022/10/07 04:34:51;;;;;;;2.05;0.98;;;8.40;99.90;;;;;;5049668;28;20114;-71
2022/10/07 04:37:17;;;;;;;1.58;0.88;;;8.50;99.90;;;;;;5057956;28;20455;-70
2022/10/07 04:39:42;;;;;;;2.95;0.90;;;8.40;99.90;;;;;;5055195;28;20138;-70
2022/10/07 04:43:17;;;;;;;2.05;0.68;;;8.40;99.90;;;;;;5067977;28;20127;-70
2022/10/07 04:44:54;;;;;;;2.08;0.75;;;8.40;99.90;;;;;;5073617;28;20058;-71
2022/10/07 04:47:19;;;;;;;1.75;0.88;;;8.40;99.90;;;;;;5054972;28;20036;-71
2022/10/07 04:49:45;;;;;;;3.90;1.15;;;8.60;99.90;;;;;;5035247;28;20138;-71
2022/10/07 04:52:10;;;;;;;3.00;1.05;;;8.40;99.90;;;;;;5064368;28;20414;-70
2022/10/07 04:54:38;;;;;;;1.73;0.82;;;8.60;99.90;;;;;;5041109;28;20387;-70
2022/10/07 04:57:04;;;;;;;1.95;0.75;;;8.40;99.90;;;;;;5063225;28;20082;-71
2022/10/07 04:59:30;;;;;;;3.45;0.93;;;8.40;99.90;;;;;;5048172;28;20141;-71
2022/10/07 05:01:56;;;;;;;2.63;0.90;;;8.70;99.90;;;;;;5064027;28;20032;-70
2022/10/07 05:04:21;;;;;;;2.60;0.90;;;8.50;99.90;;;;;;5048649;28;20205;-70
2022/10/07 05:06:47;;;;;;;2.05;0.80;;;8.40;99.90;;;;;;5083216;28;20043;-70
2022/10/07 05:09:13;;;;;;;2.50;0.90;;;8.40;99.90;;;;;;5071309;28;20044;-71
2022/10/07 05:11:38;;;;;;;2.28;0.85;;;8.40;99.90;;;;;;5023030;28;20068;-70
2022/10/07 05:14:04;;;;;;;3.28;1.02;;;8.60;99.90;;;;;;5087684;28;20394;-70
2022/10/07 05:16:30;;;;;;;3.42;0.90;;;8.70;99.90;;;;;;5058123;28;20406;-70
2022/10/07 05:18:56;;;;;;;3.40;1.10;;;8.50;99.90;;;;;;5063838;28;20047;-69
2022/10/07 05:21:21;;;;;;;2.85;1.08;;;8.40;99.90;;;;;;5066155;28;20046;-70
2022/10/07 05:23:47;;;;;;;3.50;1.02;;;8.40;99.90;;;;;;5054144;28;20384;-71
2022/10/07 05:26:14;;;;;;;2.17;0.80;;;8.40;99.90;;;;;;5046690;28;20056;-71
2022/10/07 05:28:41;;;;;;;3.30;1.02;;;8.40;99.90;;;;;;5075292;28;20115;-72
2022/10/07 05:31:09;;;;;;;1.80;0.90;;;8.80;99.90;;;;;;5063738;28;20139;-70
2022/10/07 05:33:36;;;;;;;2.55;1.00;;;8.60;99.90;;;;;;5055535;28;20040;-70
2022/10/07 05:36:02;;;;;;;3.28;1.02;;;8.50;99.90;;;;;;5067246;28;20178;-71
2022/10/07 05:38:28;;;;;;;1.70;0.75;;;8.50;99.90;;;;;;5073166;28;20052;-71
2022/10/07 05:40:57;;;;;;;2.15;1.00;;;8.80;99.90;;;;;;5073109;28;20040;-71
2022/10/07 05:43:24;;;;;;;3.30;0.90;;;8.80;99.90;;;;;;5056749;28;20056;-70
2022/10/07 05:46:16;;;;;;;2.20;0.80;;;8.70;99.90;;;;;;5055556;28;20047;-70
2022/10/07 05:48:47;;;;;;;3.75;1.25;;;8.80;99.90;;;;;;5056388;28;20369;-71
2022/10/07 05:51:13;;;;;;;3.55;1.10;;;8.70;99.90;;;;;;5061056;28;20036;-71
2022/10/07 05:53:40;;;;;;;;;;;8.60;99.90;;;;;;5052884;28;20055;-70
2022/10/07 05:56:07;;;;;;;3.08;1.20;;;8.90;99.90;;;;;;5086539;28;19920;-71
2022/10/07 05:58:37;;;;;;;3.97;1.30;;;8.80;99.90;;;;;;5077401;28;20048;-70
2022/10/07 06:01:05;;;;;;;1.58;0.88;;;8.60;99.90;;;;;;5052884;28;20060;-71
2022/10/07 06:03:32;;;;;;;2.33;0.80;;;8.90;99.90;;;;;;5055381;28;20085;-71
2022/10/07 06:05:59;;;;;;;2.33;1.00;;;8.70;99.90;;;;;;5070698;28;20382;-71
2022/10/07 06:08:26;;;;;;;1.42;0.80;;;8.80;99.90;;;;;;5063428;28;20032;-71
2022/10/07 06:13:36;;;;;;;2.80;1.08;;;9.10;99.90;;;;;;5052264;28;19916;-70
2022/10/07 06:16:07;;;;;;;4.47;1.20;;;8.80;99.90;;;;;;5039981;28;20551;-71
2022/10/07 06:18:35;;;;;;;2.40;1.10;;;8.90;99.90;;;;;;5058897;28;20107;-72
2022/10/07 06:21:01;;;;;;;4.10;1.10;;;9.30;99.90;;;;;;5053673;28;20060;-71
2022/10/07 06:23:28;;;;;;;2.13;1.00;;;9.30;99.90;;;;;;5056063;28;20041;-71
2022/10/07 06:25:59;;;;;;;2.38;1.17;;;9.40;99.90;;;;;;5042030;28;20039;-70
2022/10/07 06:28:31;;;;;;;2.60;0.90;;;9.20;99.90;;;;;;5051964;28;20033;-70
2022/10/07 06:30:56;;;;;;;2.60;0.90;;;9.40;99.90;;;;;;5051036;28;20035;-71
2022/10/07 06:33:22;;;;;;;3.08;0.98;;;9.20;99.90;;;;;;5054644;28;20044;-71
2022/10/07 06:35:47;;;;;;;3.45;1.27;;;9.20;99.90;;;;;;5053503;28;20063;-70
2022/10/07 06:38:13;;;;;;;1.58;0.93;;;9.50;99.90;;;;;;5067579;28;20059;-70
2022/10/07 06:40:39;;;;;;;4.53;1.30;;;9.30;99.90;;;;;;5056256;28;20093;-70
2022/10/07 06:43:05;;;;;;;3.15;1.02;;;9.50;99.90;;;;;;5056687;28;20122;-70
2022/10/07 06:45:32;;;;;;;5.05;1.30;;;9.50;99.90;;;;;;5053745;28;20283;-71
2022/10/07 06:47:58;;;;;;;5.13;1.45;;;9.90;99.90;;;;;;5053776;28;20440;-70
2022/10/07 06:50:23;;;;;;;3.78;1.42;;;9.90;99.90;;;;;;5065196;28;20044;-71
2022/10/07 06:52:49;;;;;;;3.50;1.30;;;9.70;99.90;;;;;;5058497;28;20044;-70
2022/10/07 06:55:16;;;;;;;3.85;1.30;;;10.00;99.90;;;;;;5058957;28;20051;-70
2022/10/07 06:57:42;;;;;;;4.28;1.42;;;10.10;99.90;;;;;;5051548;28;20059;-70
2022/10/07 07:00:08;;;;;;;5.05;1.55;;;10.10;99.90;;;;;;5037644;28;20480;-71
2022/10/07 07:02:34;;;;;;;;;;;10.00;99.90;;;;;;5062990;28;20044;-71
2022/10/07 07:05:03;;;;;;;4.40;1.33;;;10.10;99.90;;;;;;5070508;28;20005;-71
2022/10/07 07:07:29;;;;;;;2.85;1.27;;;10.10;99.90;;;;;;5059748;28;20047;-70
2022/10/07 07:09:55;;;;;;;4.10;1.50;;;10.20;99.90;;;;;;5070515;28;20098;-71
2022/10/07 07:12:24;;;;;;;4.38;1.20;;;10.40;99.90;;;;;;5056609;28;20040;-70
2022/10/07 07:14:50;;;;;;;2.78;1.30;;;10.30;99.90;;;;;;5055186;28;20134;-70
2022/10/07 07:17:16;;;;;;;;;;;10.30;99.90;;;;;;5056178;28;20056;-70
2022/10/07 07:19:42;;;;;;;2.65;1.50;;;10.70;99.90;;;;;;5055365;28;20036;-71
2022/10/07 07:22:08;;;;;;;4.97;1.60;;;10.80;99.90;;;;;;5038456;28;20229;-70
2022/10/07 07:24:34;;;;;;;4.85;1.40;;;10.80;99.90;;;;;;5054180;28;20044;-70
2022/10/07 07:26:59;;;;;;;4.03;1.50;;;11.10;99.90;;;;;;5077241;28;20152;-71
2022/10/07 07:29:25;;;;;;;3.70;1.38;;;11.00;99.90;;;;;;5059498;28;20043;-70
2022/10/07 07:31:51;;;;;;;3.75;1.20;;;11.40;99.90;;;;;;5081866;28;20071;-70
2022/10/07 07:34:17;;;;;;;4.03;1.38;;;11.30;99.90;;;;;;5052688;28;20040;-70
2022/10/07 07:36:46;;;;;;;5.22;1.60;;;11.50;99.90;;;;;;5043051;28;20097;-70
2022/10/07 07:39:14;;;;;;;4.07;1.60;;;11.60;99.90;;;;;;5039034;28;20048;-71
2022/10/07 07:41:44;;;;;;;4.70;1.80;;;11.80;99.90;;;;;;5070147;28;20487;-70
2022/10/07 07:44:12;;;;;;;5.68;1.50;;;12.00;99.90;;;;;;5066780;28;20052;-70
2022/10/07 07:46:42;;;;;;;5.70;1.90;;;11.90;99.90;;;;;;5072366;28;20042;-70
2022/10/07 07:49:12;;;;;;;3.90;1.67;;;12.10;99.90;;;;;;5069371;28;20101;-71
2022/10/07 07:51:38;;;;;;;4.18;1.20;;;12.00;99.90;;;;;;5072447;28;20036;-70
2022/10/07 07:54:05;;;;;;;5.90;1.40;;;12.10;99.90;;;;;;5056126;28;20044;-70
2022/10/07 07:56:31;;;;;;;3.28;1.27;;;12.40;99.90;;;;;;5049923;28;20040;-70
2022/10/07 07:58:58;;;;;;;5.20;1.67;;;12.40;99.90;;;;;;5056095;28;20040;-71
2022/10/07 08:01:24;;;;;;;4.97;1.73;;;12.40;99.90;;;;;;5078400;28;20170;-71
2022/10/07 08:03:50;;;;;;;;;;;12.30;99.90;;;;;;5057597;28;20041;-70
2022/10/07 08:06:19;;;;;;;3.78;1.30;;;12.40;99.90;;;;;;5060641;28;19942;-70
2022/10/07 08:08:45;;;;;;;3.45;1.38;;;12.40;99.90;;;;;;5062710;28;20041;-70
2022/10/07 08:11:15;;;;;;;;;;;12.40;99.90;;;;;;5059384;28;20044;-71
2022/10/07 08:13:41;;;;;;;4.82;1.55;;;12.50;99.90;;;;;;5058439;28;19973;-70
2022/10/07 08:16:08;;;;;;;;;;;12.40;99.90;;;;;;5061136;28;20055;-70
2022/10/07 08:18:34;;;;;;;5.20;1.50;;;12.50;99.90;;;;;;5063916;28;19920;-70
2022/10/07 08:21:03;;;;;;;6.30;1.90;;;12.60;99.90;;;;;;5056166;28;20043;-71
2022/10/07 08:23:29;;;;;;;8.40;2.20;;;12.60;99.90;;;;;;5045589;28;20056;-70
2022/10/07 08:25:56;;;;;;;5.30;1.73;;;12.50;99.90;;;;;;5061936;28;20085;-71
2022/10/07 08:28:23;;;;;;;8.43;1.80;;;12.50;99.90;;;;;;5058950;28;20331;-71
2022/10/07 08:30:49;;;;;;;8.48;1.92;;;12.70;99.90;;;;;;5053053;28;20093;-70
2022/10/07 08:33:16;;;;;;;6.63;1.85;;;12.70;99.90;;;;;;5053497;28;20125;-70
2022/10/07 08:35:42;;;;;;;7.95;2.03;;;12.70;99.90;;;;;;5064909;28;20040;-70
2022/10/07 08:38:08;;;;;;;7.75;1.95;;;12.80;99.90;;;;;;5066143;28;20125;-70
2022/10/07 08:40:35;;;;;;;5.63;1.65;;;12.80;99.90;;;;;;5060678;28;20040;-70
2022/10/07 08:43:02;;;;;;;5.82;1.70;;;12.90;99.90;;;;;;5061638;28;20052;-71
2022/10/07 08:45:32;;;;;;;9.45;1.98;;;12.90;99.90;;;;;;5041460;28;20377;-70
2022/10/07 08:48:02;;;;;;;5.43;1.60;;;13.10;99.90;;;;;;5053506;28;20048;-70
2022/10/07 08:50:50;;;;;;;10.52;2.03;;;13.10;99.90;;;;;;5051262;28;20349;-70
2022/10/07 08:53:21;;;;;;;7.05;1.90;;;13.10;99.90;;;;;;5057891;28;20063;-69
2022/10/07 08:56:04;;;;;;;6.70;1.77;;;13.20;99.90;;;;;;5054922;28;20047;-72
2022/10/07 08:59:05;;;;;;;7.45;1.77;;;13.30;99.90;;;;;;5051154;28;20109;-72
2022/10/07 09:01:43;;;;;;;6.72;1.92;;;13.30;99.90;;;;;;5055883;28;20135;-70
2022/10/07 09:04:26;;;;;;;6.75;1.92;;;13.30;99.90;;;;;;5055300;28;20524;-70
2022/10/07 09:06:55;;;;;;;6.75;2.15;;;13.40;99.90;;;;;;5057717;28;20032;-70
2022/10/07 09:09:32;;;;;;;7.18;1.88;;;13.50;99.90;;;;;;5055016;28;20086;-70
2022/10/07 09:12:01;;;;;;;8.00;1.77;;;13.50;99.90;;;;;;5053051;28;20040;-72
2022/10/07 09:14:30;;;;;;;6.40;1.80;;;13.50;99.90;;;;;;5080833;28;20404;-71
2022/10/07 09:17:01;;;;;;;5.30;1.38;;;13.50;99.90;;;;;;5054550;28;20518;-71
2022/10/07 09:19:40;;;;;;;6.70;1.63;;;13.60;99.90;;;;;;5056291;28;20048;-70
2022/10/07 09:22:18;;;;;;;4.18;1.27;;;13.70;99.90;;;;;;5052897;28;20032;-71
2022/10/07 09:24:45;;;;;;;3.88;1.25;;;13.70;99.90;;;;;;5036092;28;20055;-72
2022/10/07 09:27:14;;;;;;;3.47;1.10;;;13.80;99.90;;;;;;5045028;28;20108;-72
2022/10/07 09:29:41;;;;;;;4.88;1.20;;;13.90;99.90;;;;;;5055084;28;20044;-73
2022/10/07 09:32:14;;;;;;;;;;;14.00;99.90;;;;;;5037705;28;20051;-72
2022/10/07 09:34:39;;;;;;;9.40;2.00;;;14.00;99.90;;;;;;5056489;28;20317;-72
2022/10/07 09:37:20;;;;;;;5.30;1.65;;;14.10;99.90;;;;;;5054527;28;20040;-71
2022/10/07 09:39:49;;;;;;;4.45;1.65;;;14.30;99.90;;;;;;5035536;28;20135;-71
2022/10/07 09:42:22;;;;;;;8.32;1.90;;;14.30;99.90;;;;;;5033270;28;20168;-72
2022/10/07 09:44:53;;;;;;;4.93;1.30;;;14.50;99.90;;;;;;5049622;28;20064;-72
2022/10/07 09:47:23;;;;;;;6.13;1.52;;;14.50;99.90;;;;;;5049634;28;20451;-71
2022/10/07 09:49:55;;;;;;;6.07;1.65;;;14.70;99.90;;;;;;5049598;28;20049;-72
2022/10/07 09:52:23;;;;;;;8.77;1.67;;;14.70;99.90;;;;;;5049999;28;20040;-71
2022/10/07 09:54:55;;;;;;;5.28;1.50;;;14.90;99.90;;;;;;5050043;28;20049;-71
2022/10/07 09:57:33;;;;;;;7.43;2.08;;;14.90;99.90;;;;;;5049325;28;20048;-71
2022/10/07 10:00:11;;;;;;;10.23;2.38;;;15.10;99.90;;;;;;5033058;28;20083;-71
2022/10/07 10:02:45;;;;;;;6.43;1.63;;;15.10;99.90;;;;;;5066083;28;20139;-71
2022/10/07 10:05:27;;;;;;;6.47;1.70;;;15.30;99.90;;;;;;5066136;28;20054;-71
2022/10/07 10:07:57;;;;;;;7.38;2.08;;;15.40;99.90;;;;;;5065963;28;20484;-71
2022/10/07 10:10:29;;;;;;;6.47;1.42;;;15.40;99.90;;;;;;5065948;28;20098;-71
2022/10/07 10:12:57;;;;;;;7.28;2.03;;;15.60;99.90;;;;;;5066256;28;20044;-72
2022/10/07 10:15:25;;;;;;;7.30;1.90;;;15.60;99.90;;;;;;5049554;28;20036;-72
2022/10/07 10:17:55;;;;;;;7.50;1.77;;;15.70;99.90;;;;;;5065949;28;20430;-72
2022/10/07 10:20:27;;;;;;;8.40;1.80;;;15.70;99.90;;;;;;5049192;28;20048;-72
2022/10/07 10:22:53;;;;;;;10.70;2.05;;;15.50;99.90;;;;;;5032344;28;20079;-71
2022/10/07 10:29:01;;;;;;;6.97;1.90;;;15.50;99.90;;;;;;5049334;28;20443;-72
2022/10/07 10:31:36;;;;;;;7.80;1.83;;;15.70;99.90;;;;;;5032565;28;20040;-72
2022/10/07 10:34:41;;;;;;;5.25;1.60;;;15.90;99.90;;;;;;5048903;28;20139;-72
2022/10/07 10:37:23;;;;;;;7.93;1.73;;;16.10;99.90;;;;;;5029646;28;20059;-72
2022/10/07 10:39:48;;;;;;;5.78;1.40;;;16.30;99.90;;;;;;5032109;28;20056;-72
2022/10/07 10:42:21;;;;;;;9.10;1.83;;;16.50;99.90;;;;;;5052752;28;20052;-72
2022/10/07 10:45:26;;;;;;;5.88;1.67;;;16.60;99.90;;;;;;5068944;28;20048;-72
2022/10/07 10:48:19;;;;;;;7.50;1.88;;;16.80;99.90;;;;;;5011363;28;20048;-71
2022/10/07 10:51:00;;;;;;;5.45;1.35;;;17.00;99.90;;;;;;5067962;28;20076;-72
2022/10/07 10:53:39;;;;;;;5.75;1.48;;;17.10;99.90;;;;;;5069382;28;20404;-71
2022/10/07 10:56:33;;;;;;;6.13;1.58;;;17.10;99.90;;;;;;5069087;28;20063;-71
2022/10/07 10:59:22;;;;;;;5.88;1.40;;;17.30;99.90;;;;;;5069118;28;20048;-72
2022/10/07 11:02:02;;;;;;;7.70;2.10;;;17.30;99.90;;;;;;5068654;28;20032;-72
2022/10/07 11:04:28;;;;;;;7.93;2.00;;;17.40;99.90;;;;;;5058198;28;20119;-71
2022/10/07 11:07:20;;;;;;;7.78;1.75;;;17.50;99.90;;;;;;5055865;28;20516;-70
2022/10/07 11:09:56;;;;;;;6.35;1.50;;;17.50;99.90;;;;;;5057235;28;20045;-71
2022/10/07 11:12:48;;;;;;;5.07;1.33;;;17.60;99.90;;;;;;5048299;28;20084;-71
2022/10/07 11:15:40;;;;;;;6.22;1.55;;;17.50;99.90;;;;;;5048881;28;20081;-71
2022/10/07 11:18:23;;;;;;;5.03;1.60;;;17.70;99.90;;;;;;5049771;28;20045;-72
2022/10/07 11:20:49;;;;;;;5.68;1.58;;;17.70;99.90;;;;;;5061201;28;20388;-71
2022/10/07 11:23:24;;;;;;;6.05;1.35;;;17.80;99.90;;;;;;5068365;28;20439;-71
2022/10/07 11:26:22;;;;;;;7.90;1.75;;;17.90;99.90;;;;;;5061053;28;20116;-71
2022/10/07 11:28:50;;;;;;;4.63;1.52;;;17.90;99.90;;;;;;5045386;28;20054;-71
2022/10/07 11:31:25;;;;;;;7.28;1.52;;;18.10;99.90;;;;;;5044431;28;20037;-71
2022/10/07 11:34:12;;;;;;;4.32;1.20;;;18.20;99.90;;;;;;5054434;28;20041;-71
2022/10/07 11:37:14;;;;;;;6.55;1.27;;;18.40;99.90;;;;;;5054006;28;20366;-70
2022/10/07 11:39:40;;;;;;;3.92;1.15;;;18.40;99.90;;;;;;5038125;28;20052;-71
2022/10/07 11:42:12;;;;;;;;;;;18.50;99.90;;;;;;5061954;28;20055;-72
2022/10/07 11:44:43;;;;;;;5.13;1.40;;;18.20;99.90;;;;;;5068568;28;20014;-71
2022/10/07 11:47:15;;;;;;;5.72;1.25;;;17.90;99.90;;;;;;5062108;28;20032;-72
2022/10/07 11:49:46;;;;;;;4.20;1.20;;;17.70;99.90;;;;;;5051159;28;20036;-70
2022/10/07 11:52:23;;;;;;;5.40;1.83;;;17.60;99.90;;;;;;5061082;28;20049;-70
2022/10/07 11:55:23;;;;;;;6.68;1.17;;;17.40;99.90;;;;;;5061358;28;20028;-71
2022/10/07 11:57:56;;;;;;;6.18;1.58;;;17.40;99.90;;;;;;5045708;28;20049;-71
2022/10/07 12:00:31;;;;;;;5.43;1.40;;;17.30;99.90;;;;;;5039078;28;20048;-71
2022/10/07 12:03:30;;;;;;;7.97;2.08;;;17.40;99.90;;;;;;5064562;28;20043;-71
2022/10/07 12:06:05;;;;;;;5.07;1.20;;;17.40;99.90;;;;;;5033957;28;20054;-71
2022/10/07 12:08:40;;;;;;;9.38;1.80;;;17.40;99.90;;;;;;5063677;28;20039;-71
2022/10/07 12:11:13;;;;;;;8.45;1.77;;;17.30;99.90;;;;;;5053670;28;20403;-71
2022/10/07 12:13:47;;;;;;;6.97;1.45;;;17.30;99.90;;;;;;5054971;28;20060;-72
2022/10/07 12:16:31;;;;;;;6.40;1.60;;;17.20;99.90;;;;;;5058452;28;20128;-71
2022/10/07 12:19:06;;;;;;;5.68;1.35;;;17.30;99.90;;;;;;5081108;28;20040;-71
2022/10/07 12:22:03;;;;;;;3.60;1.20;;;17.40;99.90;;;;;;5059287;28;20036;-71
2022/10/07 12:24:31;;;;;;;6.85;1.58;;;17.40;99.90;;;;;;5063329;28;20044;-71
2022/10/07 12:27:05;;;;;;;6.82;1.48;;;17.50;99.90;;;;;;5061920;28;20040;-71
2022/10/07 12:29:42;;;;;;;4.68;1.23;;;17.50;99.90;;;;;;5055156;28;20040;-76
2022/10/07 12:32:44;;;;;;;4.93;1.42;;;17.50;99.90;;;;;;5061678;28;20071;-71
2022/10/07 12:35:38;;;;;;;6.43;1.65;;;17.50;99.90;;;;;;5068444;28;20046;-70
2022/10/07 12:38:13;;;;;;;6.50;1.80;;;17.40;99.90;;;;;;5058035;28;20102;-69
2022/10/07 12:40:41;;;;;;;7.22;1.60;;;17.20;99.90;;;;;;5092962;28;20069;-69
2022/10/07 12:43:24;;;;;;;7.00;1.65;;;17.20;99.90;;;;;;5071717;28;20131;-70
2022/10/07 12:45:51;;;;;;;8.95;1.58;;;17.10;99.90;;;;;;5067500;28;20082;-71
2022/10/07 12:48:20;;;;;;;6.53;1.83;;;17.10;99.90;;;;;;5027128;28;20101;-71
2022/10/07 12:50:52;;;;;;;7.15;1.70;;;17.00;99.90;;;;;;5066639;28;20043;-80
2022/10/07 12:53:22;;;;;;;3.30;1.20;;;17.20;99.90;;;;;;5059459;28;20040;-79
2022/10/07 12:55:52;;;;;;;4.97;1.20;;;17.30;99.90;;;;;;5059835;28;20121;-81
2022/10/07 13:01:49;;;;;;;5.55;1.48;;;17.30;99.90;;;;;;5074313;28;20040;-80
2022/10/07 13:04:56;;;;;;;5.78;1.35;;;17.50;99.90;;;;;;5073207;28;20040;-80
2022/10/07 13:07:58;;;;;;;3.28;1.00;;;17.60;99.90;;;;;;5074110;28;20499;-79
2022/10/07 13:10:45;;;;;;;2.60;0.95;;;17.60;99.90;;;;;;5057805;28;20036;-80
2022/10/07 13:13:26;;;;;;;4.60;1.48;;;17.60;99.90;;;;;;5074025;28;20573;-80
2022/10/07 13:16:02;;;;;;;4.82;1.55;;;17.40;99.90;;;;;;5074111;28;20058;-81
2022/10/07 13:18:39;;;;;;;4.53;1.35;;;17.30;99.90;;;;;;5074058;28;20043;-82
2022/10/07 13:21:18;;;;;;;4.55;1.00;;;17.10;99.90;;;;;;5074231;28;20326;-79
2022/10/07 13:23:53;;;;;;;7.05;1.35;;;17.10;99.90;;;;;;5073813;28;20140;-81
2022/10/07 13:26:21;;;;;;;5.13;1.33;;;17.10;99.90;;;;;;5074221;28;20114;-80
2022/10/07 13:28:52;;;;;;;5.10;1.60;;;17.10;99.90;;;;;;5040769;28;20143;-80